Erofej Pavlovic, Russia
Current Conditions -  °F | °C
As of 9:00 PM on Sunday 25 Jan 2015 (Local Time) from UHBB Reporting Station
Clear Clear  
Wind Chill: -4°   Ceiling: Unl
Heat Index:   Visibility: 4mi
Dew Point:   Wind: 4mph
Humidity: 85%   Direction: 220°SW
Pressure: 30"   Gusts: NA
Location:  53.97°N, 121.93°E
Report Text: UHBB 251200Z 22002MPS 180V260 7000 NSC M15/M17 Q1016 NOSIG RMKQFE745/0993 36410260
Loading
Personal Weather Stations






























Interactive Weather Map New forecast layout! Learn more

10-Day Weather Forecast

Advertisements
Track Severe Weather on mobile